sensor_id;sensor_type;location;lat;lon;timestamp;pressure;altitude;pressure_sealevel;temperature;humidity
14117;BME280;7137;51.436;6.544;2023-05-19T00:00:18;102154.28;;;10.38;75.18
14117;BME280;7137;51.436;6.544;2023-05-19T00:03:22;102169.16;;;10.30;75.78
14117;BME280;7137;51.436;6.544;2023-05-19T00:06:25;102167.44;;;10.23;75.43
14117;BME280;7137;51.436;6.544;2023-05-19T00:09:28;102162.25;;;10.21;77.00
14117;BME280;7137;51.436;6.544;2023-05-19T00:12:31;102163.94;;;10.21;75.93
14117;BME280;7137;51.436;6.544;2023-05-19T00:15:33;102166.63;;;10.11;75.89
14117;BME280;7137;51.436;6.544;2023-05-19T00:18:36;102161.44;;;10.05;77.04
14117;BME280;7137;51.436;6.544;2023-05-19T00:21:37;102168.38;;;10.08;77.38
14117;BME280;7137;51.436;6.544;2023-05-19T00:24:39;102169.31;;;10.01;76.35
14117;BME280;7137;51.436;6.544;2023-05-19T00:27:41;102172.78;;;10.01;78.10
14117;BME280;7137;51.436;6.544;2023-05-19T00:30:42;102167.56;;;9.97;77.63
14117;BME280;7137;51.436;6.544;2023-05-19T00:33:45;102168.47;;;9.91;77.31
14117;BME280;7137;51.436;6.544;2023-05-19T00:36:47;102168.44;;;9.96;78.26
14117;BME280;7137;51.436;6.544;2023-05-19T00:39:48;102164.97;;;10.00;78.14
14117;BME280;7137;51.436;6.544;2023-05-19T00:42:50;102160.66;;;9.90;79.07
14117;BME280;7137;51.436;6.544;2023-05-19T00:45:51;102174.53;;;9.95;77.23
14117;BME280;7137;51.436;6.544;2023-05-19T00:48:54;102167.63;;;9.88;77.35
14117;BME280;7137;51.436;6.544;2023-05-19T00:51:56;102165.91;;;9.83;78.09
14117;BME280;7137;51.436;6.544;2023-05-19T00:54:58;102162.41;;;9.89;77.57
14117;BME280;7137;51.436;6.544;2023-05-19T00:58:00;102162.34;;;9.97;77.02
14117;BME280;7137;51.436;6.544;2023-05-19T01:01:02;102158.94;;;9.87;78.89
14117;BME280;7137;51.436;6.544;2023-05-19T01:04:07;102161.56;;;9.82;79.12
14117;BME280;7137;51.436;6.544;2023-05-19T01:07:10;102159.88;;;9.75;79.55
14117;BME280;7137;51.436;6.544;2023-05-19T01:10:12;102156.44;;;9.61;80.15
14117;BME280;7137;51.436;6.544;2023-05-19T01:13:14;102159.03;;;9.66;79.30
14117;BME280;7137;51.436;6.544;2023-05-19T01:16:22;102159.94;;;9.60;80.01
14117;BME280;7137;51.436;6.544;2023-05-19T01:19:42;102150.38;;;9.55;81.42
14117;BME280;7137;51.436;6.544;2023-05-19T01:23:19;102149.50;;;9.56;80.73
14117;BME280;7137;51.436;6.544;2023-05-19T01:26:57;102153.84;;;9.60;81.04
14117;BME280;7137;51.436;6.544;2023-05-19T01:30:17;102144.31;;;9.49;81.17
14117;BME280;7137;51.436;6.544;2023-05-19T01:33:23;102146.97;;;9.37;80.82
14117;BME280;7137;51.436;6.544;2023-05-19T01:36:25;102156.53;;;9.37;80.87
14117;BME280;7137;51.436;6.544;2023-05-19T01:39:27;102153.91;;;9.46;80.65
14117;BME280;7137;51.436;6.544;2023-05-19T01:42:29;102149.59;;;9.36;81.17
14117;BME280;7137;51.436;6.544;2023-05-19T01:45:39;102152.19;;;9.36;81.84
14117;BME280;7137;51.436;6.544;2023-05-19T01:48:41;102150.47;;;9.32;81.18
14117;BME280;7137;51.436;6.544;2023-05-19T01:51:43;102153.09;;;9.32;81.46
14117;BME280;7137;51.436;6.544;2023-05-19T01:54:44;102157.44;;;9.30;81.32
14117;BME280;7137;51.436;6.544;2023-05-19T01:57:56;102158.28;;;9.26;82.41
14117;BME280;7137;51.436;6.544;2023-05-19T02:01:09;102159.16;;;9.25;81.32
14117;BME280;7137;51.436;6.544;2023-05-19T02:04:18;102153.94;;;9.32;81.15
14117;BME280;7137;51.436;6.544;2023-05-19T02:07:30;102162.63;;;9.27;80.99
14117;BME280;7137;51.436;6.544;2023-05-19T02:10:36;102153.13;;;9.06;82.47
14117;BME280;7137;51.436;6.544;2023-05-19T02:13:42;102152.25;;;9.11;82.69
14117;BME280;7137;51.436;6.544;2023-05-19T02:16:47;102159.22;;;9.00;82.21
14117;BME280;7137;51.436;6.544;2023-05-19T02:19:49;102148.81;;;9.05;82.06
14117;BME280;7137;51.436;6.544;2023-05-19T02:22:51;102156.63;;;8.94;82.43
14117;BME280;7137;51.436;6.544;2023-05-19T02:25:52;102151.44;;;8.89;82.78
14117;BME280;7137;51.436;6.544;2023-05-19T02:28:54;102150.56;;;8.89;82.42
14117;BME280;7137;51.436;6.544;2023-05-19T02:31:57;102147.97;;;8.90;83.15
14117;BME280;7137;51.436;6.544;2023-05-19T02:34:59;102148.81;;;8.85;83.13
14117;BME280;7137;51.436;6.544;2023-05-19T02:38:00;102144.50;;;8.69;82.88
14117;BME280;7137;51.436;6.544;2023-05-19T02:41:02;102138.41;;;8.82;83.54
14117;BME280;7137;51.436;6.544;2023-05-19T02:44:04;102122.75;;;8.85;83.00
14117;BME280;7137;51.436;6.544;2023-05-19T02:47:07;102128.88;;;8.87;83.16
14117;BME280;7137;51.436;6.544;2023-05-19T02:50:09;102127.97;;;8.92;82.47
14117;BME280;7137;51.436;6.544;2023-05-19T02:53:10;102121.91;;;8.92;82.48
14117;BME280;7137;51.436;6.544;2023-05-19T02:56:12;102125.34;;;8.97;82.57
14117;BME280;7137;51.436;6.544;2023-05-19T02:59:13;102131.47;;;8.87;82.85
14117;BME280;7137;51.436;6.544;2023-05-19T03:02:17;102138.41;;;8.77;83.85
14117;BME280;7137;51.436;6.544;2023-05-19T03:05:18;102141.88;;;8.81;83.32
14117;BME280;7137;51.436;6.544;2023-05-19T03:08:20;102139.25;;;8.84;83.37
14117;BME280;7137;51.436;6.544;2023-05-19T03:11:22;102142.75;;;8.69;84.02
14117;BME280;7137;51.436;6.544;2023-05-19T03:14:23;102138.41;;;8.83;83.79
14117;BME280;7137;51.436;6.544;2023-05-19T03:17:26;102139.28;;;8.79;83.52
14117;BME280;7137;51.436;6.544;2023-05-19T03:20:32;102135.81;;;8.68;84.00
14117;BME280;7137;51.436;6.544;2023-05-19T03:23:34;102133.19;;;8.91;83.33
14117;BME280;7137;51.436;6.544;2023-05-19T03:26:35;102141.00;;;8.85;83.35
14117;BME280;7137;51.436;6.544;2023-05-19T03:29:37;102143.63;;;8.71;83.96
14117;BME280;7137;51.436;6.544;2023-05-19T03:32:40;102142.78;;;8.74;84.21
14117;BME280;7137;51.436;6.544;2023-05-19T03:35:41;102142.75;;;8.66;84.92
14117;BME280;7137;51.436;6.544;2023-05-19T03:38:43;102145.38;;;8.65;84.74
14117;BME280;7137;51.436;6.544;2023-05-19T03:41:45;102134.94;;;8.55;85.05
14117;BME280;7137;51.436;6.544;2023-05-19T03:44:46;102137.53;;;8.58;85.13
14117;BME280;7137;51.436;6.544;2023-05-19T03:47:50;102133.22;;;8.60;85.17
14117;BME280;7137;51.436;6.544;2023-05-19T03:50:51;102131.47;;;8.49;85.64
14117;BME280;7137;51.436;6.544;2023-05-19T03:53:53;102134.94;;;8.55;86.04
14117;BME280;7137;51.436;6.544;2023-05-19T03:56:55;102141.03;;;8.60;85.53
14117;BME280;7137;51.436;6.544;2023-05-19T03:59:56;102142.75;;;8.71;84.80
14117;BME280;7137;51.436;6.544;2023-05-19T04:02:59;102142.75;;;8.68;84.86
14117;BME280;7137;51.436;6.544;2023-05-19T04:06:01;102145.34;;;8.68;84.42
14117;BME280;7137;51.436;6.544;2023-05-19T04:09:02;102141.88;;;8.69;84.94
14117;BME280;7137;51.436;6.544;2023-05-19T04:12:11;102140.16;;;8.65;85.18
14117;BME280;7137;51.436;6.544;2023-05-19T04:15:13;102154.94;;;8.61;85.78
14117;BME280;7137;51.436;6.544;2023-05-19T04:18:16;102159.25;;;8.80;84.67
14117;BME280;7137;51.436;6.544;2023-05-19T04:21:17;102160.13;;;8.91;84.96
14117;BME280;7137;51.436;6.544;2023-05-19T04:24:21;102167.94;;;9.02;84.44
14117;BME280;7137;51.436;6.544;2023-05-19T04:27:23;102161.81;;;9.15;84.10
14117;BME280;7137;51.436;6.544;2023-05-19T04:30:25;102157.47;;;9.10;83.88
14117;BME280;7137;51.436;6.544;2023-05-19T04:33:29;102154.84;;;9.10;82.57
14117;BME280;7137;51.436;6.544;2023-05-19T04:36:30;102157.47;;;9.17;82.54
14117;BME280;7137;51.436;6.544;2023-05-19T04:39:33;102162.66;;;9.11;83.74
14117;BME280;7137;51.436;6.544;2023-05-19T04:42:38;102166.16;;;9.19;83.39
14117;BME280;7137;51.436;6.544;2023-05-19T04:45:41;102156.53;;;9.28;82.88
14117;BME280;7137;51.436;6.544;2023-05-19T04:48:44;102154.78;;;9.37;82.50
14117;BME280;7137;51.436;6.544;2023-05-19T04:51:46;102160.81;;;9.55;82.05
14117;BME280;7137;51.436;6.544;2023-05-19T04:54:49;102158.22;;;9.58;81.24
14117;BME280;7137;51.436;6.544;2023-05-19T04:57:50;102153.91;;;9.47;81.98
14117;BME280;7137;51.436;6.544;2023-05-19T05:00:52;102153.84;;;9.53;82.34
14117;BME280;7137;51.436;6.544;2023-05-19T05:03:56;102153.06;;;9.36;83.23
14117;BME280;7137;51.436;6.544;2023-05-19T05:06:58;102151.28;;;9.47;82.96
14117;BME280;7137;51.436;6.544;2023-05-19T05:09:59;102153.91;;;9.44;81.94
14117;BME280;7137;51.436;6.544;2023-05-19T05:13:01;102150.44;;;9.39;82.32
14117;BME280;7137;51.436;6.544;2023-05-19T05:16:04;102154.72;;;9.52;82.24
14117;BME280;7137;51.436;6.544;2023-05-19T05:19:09;102152.13;;;9.52;82.40
14117;BME280;7137;51.436;6.544;2023-05-19T05:22:11;102159.06;;;9.58;81.49
14117;BME280;7137;51.436;6.544;2023-05-19T05:25:14;102153.81;;;9.72;81.01
14117;BME280;7137;51.436;6.544;2023-05-19T05:28:16;102158.06;;;9.87;81.89
14117;BME280;7137;51.436;6.544;2023-05-19T05:31:18;102162.25;;;10.12;79.91
14117;BME280;7137;51.436;6.544;2023-05-19T05:34:21;102156.88;;;10.41;80.14
14117;BME280;7137;51.436;6.544;2023-05-19T05:37:23;102155.84;;;10.63;77.59
14117;BME280;7137;51.436;6.544;2023-05-19T05:40:24;102160.06;;;10.77;76.84
14117;BME280;7137;51.436;6.544;2023-05-19T05:43:26;102153.00;;;10.88;76.11
14117;BME280;7137;51.436;6.544;2023-05-19T05:46:28;102156.78;;;11.44;74.53
14117;BME280;7137;51.436;6.544;2023-05-19T05:49:32;102144.94;;;12.95;68.38
14117;BME280;7137;51.436;6.544;2023-05-19T05:52:36;102140.84;;;13.70;62.89
14117;BME280;7137;51.436;6.544;2023-05-19T05:55:38;102147.94;;;14.79;60.94
14117;BME280;7137;51.436;6.544;2023-05-19T05:58:40;102146.44;;;16.23;54.04
14117;BME280;7137;51.436;6.544;2023-05-19T06:01:41;102148.81;;;18.69;49.65
14117;BME280;7137;51.436;6.544;2023-05-19T06:04:45;102148.81;;;18.69;47.45
14117;BME280;7137;51.436;6.544;2023-05-19T06:07:46;102152.41;;;19.09;46.97
14117;BME280;7137;51.436;6.544;2023-05-19T06:10:48;102152.13;;;20.10;44.96
14117;BME280;7137;51.436;6.544;2023-05-19T06:13:49;102145.16;;;19.51;45.59
14117;BME280;7137;51.436;6.544;2023-05-19T06:16:51;102159.50;;;19.47;44.46
14117;BME280;7137;51.436;6.544;2023-05-19T06:19:54;102157.94;;;19.43;46.01
14117;BME280;7137;51.436;6.544;2023-05-19T06:22:56;102141.53;;;18.94;47.01
14117;BME280;7137;51.436;6.544;2023-05-19T06:25:58;102144.41;;;21.11;42.30
14117;BME280;7137;51.436;6.544;2023-05-19T06:28:59;102149.94;;;20.73;41.86
14117;BME280;7137;51.436;6.544;2023-05-19T06:32:01;102155.09;;;19.67;44.71
14117;BME280;7137;51.436;6.544;2023-05-19T06:35:04;102159.13;;;19.56;43.78
14117;BME280;7137;51.436;6.544;2023-05-19T06:38:06;102153.34;;;20.75;41.50
14117;BME280;7137;51.436;6.544;2023-05-19T06:41:07;102152.97;;;23.05;37.94
14117;BME280;7137;51.436;6.544;2023-05-19T06:44:09;102157.13;;;21.72;39.04
14117;BME280;7137;51.436;6.544;2023-05-19T06:47:10;102148.22;;;20.72;39.39
14117;BME280;7137;51.436;6.544;2023-05-19T06:50:13;102151.16;;;21.01;39.61
14117;BME280;7137;51.436;6.544;2023-05-19T06:53:15;102149.50;;;21.98;37.65
14117;BME280;7137;51.436;6.544;2023-05-19T06:56:17;102149.44;;;22.45;36.56
14117;BME280;7137;51.436;6.544;2023-05-19T06:59:19;102149.25;;;22.48;38.75
14117;BME280;7137;51.436;6.544;2023-05-19T07:02:21;102151.44;;;23.16;37.56
14117;BME280;7137;51.436;6.544;2023-05-19T07:05:24;102152.72;;;23.24;36.34
14117;BME280;7137;51.436;6.544;2023-05-19T07:08:26;102145.50;;;22.36;37.38
14117;BME280;7137;51.436;6.544;2023-05-19T07:11:28;102141.41;;;20.50;41.02
14117;BME280;7137;51.436;6.544;2023-05-19T07:14:29;102141.63;;;22.72;36.24
14117;BME280;7137;51.436;6.544;2023-05-19T07:17:31;102142.38;;;26.68;29.34
14117;BME280;7137;51.436;6.544;2023-05-19T07:20:34;102146.28;;;27.43;27.83
14117;BME280;7137;51.436;6.544;2023-05-19T07:23:35;102144.16;;;29.09;26.60
14117;BME280;7137;51.436;6.544;2023-05-19T07:26:37;102140.34;;;23.66;31.85
14117;BME280;7137;51.436;6.544;2023-05-19T07:29:38;102136.50;;;22.39;35.87
14117;BME280;7137;51.436;6.544;2023-05-19T07:32:40;102136.13;;;23.19;33.96
14117;BME280;7137;51.436;6.544;2023-05-19T07:35:43;102137.41;;;21.27;36.98
14117;BME280;7137;51.436;6.544;2023-05-19T07:38:45;102127.56;;;22.40;35.41
14117;BME280;7137;51.436;6.544;2023-05-19T07:41:47;102135.44;;;22.71;34.76
14117;BME280;7137;51.436;6.544;2023-05-19T07:44:51;102133.53;;;23.03;34.06
14117;BME280;7137;51.436;6.544;2023-05-19T07:47:53;102122.81;;;24.30;32.62
14117;BME280;7137;51.436;6.544;2023-05-19T07:50:56;102119.81;;;24.87;30.79
14117;BME280;7137;51.436;6.544;2023-05-19T07:53:58;102124.09;;;22.54;34.01
14117;BME280;7137;51.436;6.544;2023-05-19T07:56:59;102134.03;;;25.64;30.37
14117;BME280;7137;51.436;6.544;2023-05-19T08:00:01;102127.06;;;24.72;30.65
14117;BME280;7137;51.436;6.544;2023-05-19T08:03:06;102130.56;;;26.70;27.03
14117;BME280;7137;51.436;6.544;2023-05-19T08:06:09;102131.44;;;28.05;26.23
14117;BME280;7137;51.436;6.544;2023-05-19T08:09:11;102126.09;;;24.61;30.56
14117;BME280;7137;51.436;6.544;2023-05-19T08:12:12;102113.91;;;24.69;30.41
14117;BME280;7137;51.436;6.544;2023-05-19T08:15:14;102113.56;;;23.25;32.54
14117;BME280;7137;51.436;6.544;2023-05-19T08:18:16;102114.44;;;23.95;31.05
14117;BME280;7137;51.436;6.544;2023-05-19T08:21:18;102106.75;;;26.30;28.90
14117;BME280;7137;51.436;6.544;2023-05-19T08:24:20;102104.28;;;25.43;28.89
14117;BME280;7137;51.436;6.544;2023-05-19T08:27:22;102108.78;;;25.42;28.68
14117;BME280;7137;51.436;6.544;2023-05-19T08:30:24;102104.03;;;24.17;29.16
14117;BME280;7137;51.436;6.544;2023-05-19T08:33:25;102105.25;;;23.44;30.34
14117;BME280;7137;51.436;6.544;2023-05-19T08:36:29;102099.66;;;25.94;28.43
14117;BME280;7137;51.436;6.544;2023-05-19T08:39:30;102102.50;;;26.28;26.20
14117;BME280;7137;51.436;6.544;2023-05-19T08:42:33;102098.88;;;25.81;27.42
14117;BME280;7137;51.436;6.544;2023-05-19T08:45:35;102098.94;;;29.33;24.98
14117;BME280;7137;51.436;6.544;2023-05-19T08:48:41;102102.38;;;26.29;25.35
14117;BME280;7137;51.436;6.544;2023-05-19T08:51:49;102088.94;;;25.08;28.61
14117;BME280;7137;51.436;6.544;2023-05-19T08:54:54;102077.16;;;22.51;30.69
14117;BME280;7137;51.436;6.544;2023-05-19T08:58:00;102083.25;;;22.39;31.17
14117;BME280;7137;51.436;6.544;2023-05-19T09:01:02;102081.47;;;23.12;29.83
14117;BME280;7137;51.436;6.544;2023-05-19T09:04:05;102077.19;;;22.65;30.28
14117;BME280;7137;51.436;6.544;2023-05-19T09:07:09;102071.72;;;21.77;33.18
14117;BME280;7137;51.436;6.544;2023-05-19T09:10:11;102066.88;;;23.87;30.38
14117;BME280;7137;51.436;6.544;2023-05-19T09:13:15;102067.69;;;23.47;29.79
14117;BME280;7137;51.436;6.544;2023-05-19T09:16:16;102059.16;;;23.83;30.58
14117;BME280;7137;51.436;6.544;2023-05-19T09:19:18;102061.84;;;24.87;28.46
14117;BME280;7137;51.436;6.544;2023-05-19T09:22:22;102055.31;;;23.46;31.00
14117;BME280;7137;51.436;6.544;2023-05-19T09:25:24;102047.94;;;25.21;29.19
14117;BME280;7137;51.436;6.544;2023-05-19T09:28:27;102055.94;;;22.49;31.17
14117;BME280;7137;51.436;6.544;2023-05-19T09:31:31;102038.97;;;24.58;29.18
14117;BME280;7137;51.436;6.544;2023-05-19T09:34:32;102030.78;;;23.82;29.63
14117;BME280;7137;51.436;6.544;2023-05-19T09:37:38;102029.66;;;21.52;33.28
14117;BME280;7137;51.436;6.544;2023-05-19T09:40:40;102028.88;;;21.97;32.94
14117;BME280;7137;51.436;6.544;2023-05-19T09:43:41;102027.97;;;25.01;30.13
14117;BME280;7137;51.436;6.544;2023-05-19T09:46:46;102037.53;;;26.13;27.02
14117;BME280;7137;51.436;6.544;2023-05-19T09:49:48;102037.53;;;22.75;30.35
14117;BME280;7137;51.436;6.544;2023-05-19T09:52:52;102027.84;;;25.99;27.56
14117;BME280;7137;51.436;6.544;2023-05-19T09:55:54;102034.84;;;23.46;30.41
14117;BME280;7137;51.436;6.544;2023-05-19T09:58:57;102032.22;;;24.40;28.36
14117;BME280;7137;51.436;6.544;2023-05-19T10:02:00;102035.22;;;24.08;29.92
14117;BME280;7137;51.436;6.544;2023-05-19T10:05:02;102028.56;;;25.90;28.55
14117;BME280;7137;51.436;6.544;2023-05-19T10:08:06;102032.53;;;25.85;27.39
14117;BME280;7137;51.436;6.544;2023-05-19T10:11:09;102033.56;;;25.71;27.91
14117;BME280;7137;51.436;6.544;2023-05-19T10:14:12;102017.56;;;22.23;32.12
14117;BME280;7137;51.436;6.544;2023-05-19T10:17:15;102011.66;;;24.27;29.46
14117;BME280;7137;51.436;6.544;2023-05-19T10:20:17;102020.75;;;25.27;29.13
14117;BME280;7137;51.436;6.544;2023-05-19T10:23:20;102016.44;;;25.61;29.60
14117;BME280;7137;51.436;6.544;2023-05-19T10:26:23;102016.94;;;25.79;28.01
14117;BME280;7137;51.436;6.544;2023-05-19T10:29:28;102020.19;;;23.39;31.40
14117;BME280;7137;51.436;6.544;2023-05-19T10:32:31;102017.09;;;22.01;32.89
14117;BME280;7137;51.436;6.544;2023-05-19T10:35:51;102015.59;;;21.34;33.82
14117;BME280;7137;51.436;6.544;2023-05-19T10:39:02;102005.53;;;21.23;34.20
14117;BME280;7137;51.436;6.544;2023-05-19T10:42:09;102008.50;;;22.12;33.85
14117;BME280;7137;51.436;6.544;2023-05-19T10:45:17;102012.94;;;20.52;34.58
14117;BME280;7137;51.436;6.544;2023-05-19T10:48:20;102000.81;;;20.64;34.33
14117;BME280;7137;51.436;6.544;2023-05-19T10:51:27;101999.00;;;20.12;35.05
14117;BME280;7137;51.436;6.544;2023-05-19T10:54:41;101996.34;;;20.12;37.15
14117;BME280;7137;51.436;6.544;2023-05-19T10:57:52;101994.34;;;20.35;36.53
14117;BME280;7137;51.436;6.544;2023-05-19T11:00:59;101988.09;;;20.19;36.29
14117;BME280;7137;51.436;6.544;2023-05-19T11:04:05;101994.72;;;20.10;36.37
14117;BME280;7137;51.436;6.544;2023-05-19T11:07:07;101980.22;;;20.52;37.27
14117;BME280;7137;51.436;6.544;2023-05-19T11:10:11;101989.50;;;20.60;36.17
14117;BME280;7137;51.436;6.544;2023-05-19T11:13:19;101990.34;;;20.26;36.82
14117;BME280;7137;51.436;6.544;2023-05-19T11:16:28;101973.97;;;20.53;36.70
14117;BME280;7137;51.436;6.544;2023-05-19T11:19:31;101981.72;;;21.38;35.68
14117;BME280;7137;51.436;6.544;2023-05-19T11:22:33;101982.31;;;21.58;35.22
14117;BME280;7137;51.436;6.544;2023-05-19T11:25:47;101981.22;;;20.32;37.32
14117;BME280;7137;51.436;6.544;2023-05-19T11:28:51;101986.16;;;20.57;35.91
14117;BME280;7137;51.436;6.544;2023-05-19T11:31:53;101987.88;;;21.22;37.39
14117;BME280;7137;51.436;6.544;2023-05-19T11:34:55;101986.06;;;21.07;37.61
14117;BME280;7137;51.436;6.544;2023-05-19T11:37:57;101986.50;;;20.66;35.46
14117;BME280;7137;51.436;6.544;2023-05-19T11:41:00;101970.16;;;21.54;35.88
14117;BME280;7137;51.436;6.544;2023-05-19T11:44:08;101970.66;;;20.65;37.88
14117;BME280;7137;51.436;6.544;2023-05-19T11:47:10;101975.63;;;20.55;36.27
14117;BME280;7137;51.436;6.544;2023-05-19T11:50:12;101976.56;;;20.20;36.39
14117;BME280;7137;51.436;6.544;2023-05-19T11:53:14;101969.91;;;20.11;37.21
14117;BME280;7137;51.436;6.544;2023-05-19T11:56:17;101965.94;;;19.85;37.54
14117;BME280;7137;51.436;6.544;2023-05-19T11:59:28;101961.78;;;20.31;37.62
14117;BME280;7137;51.436;6.544;2023-05-19T12:02:30;101955.66;;;20.64;37.99
14117;BME280;7137;51.436;6.544;2023-05-19T12:05:32;101951.28;;;20.63;38.21
14117;BME280;7137;51.436;6.544;2023-05-19T12:08:36;101958.66;;;20.58;37.92
14117;BME280;7137;51.436;6.544;2023-05-19T12:11:39;101946.75;;;19.80;37.24
14117;BME280;7137;51.436;6.544;2023-05-19T12:14:41;101945.50;;;19.51;38.94
14117;BME280;7137;51.436;6.544;2023-05-19T12:17:43;101947.22;;;19.71;39.05
14117;BME280;7137;51.436;6.544;2023-05-19T12:20:45;101939.56;;;19.82;38.02
14117;BME280;7137;51.436;6.544;2023-05-19T12:23:47;101941.84;;;19.90;37.15
14117;BME280;7137;51.436;6.544;2023-05-19T12:26:50;101930.38;;;19.72;38.35
14117;BME280;7137;51.436;6.544;2023-05-19T12:29:53;101941.06;;;19.88;38.04
14117;BME280;7137;51.436;6.544;2023-05-19T12:32:55;101931.13;;;20.43;37.41
14117;BME280;7137;51.436;6.544;2023-05-19T12:35:57;101932.91;;;20.75;36.69
14117;BME280;7137;51.436;6.544;2023-05-19T12:39:00;101938.13;;;20.77;37.09
14117;BME280;7137;51.436;6.544;2023-05-19T12:42:06;101929.31;;;20.26;36.25
14117;BME280;7137;51.436;6.544;2023-05-19T12:45:08;101919.53;;;20.27;37.16
14117;BME280;7137;51.436;6.544;2023-05-19T12:48:10;101926.94;;;20.37;36.58
14117;BME280;7137;51.436;6.544;2023-05-19T12:51:15;101922.28;;;20.25;36.66
14117;BME280;7137;51.436;6.544;2023-05-19T12:54:18;101914.09;;;20.30;35.79
14117;BME280;7137;51.436;6.544;2023-05-19T12:57:20;101911.69;;;20.08;37.22
14117;BME280;7137;51.436;6.544;2023-05-19T13:00:23;101909.66;;;20.30;37.00
14117;BME280;7137;51.436;6.544;2023-05-19T13:03:27;101917.81;;;20.60;37.08
14117;BME280;7137;51.436;6.544;2023-05-19T13:06:29;101908.13;;;20.59;35.82
14117;BME280;7137;51.436;6.544;2023-05-19T13:09:32;101899.41;;;21.04;36.81
14117;BME280;7137;51.436;6.544;2023-05-19T13:12:36;101897.84;;;20.69;36.29
14117;BME280;7137;51.436;6.544;2023-05-19T13:15:40;101903.38;;;20.97;36.40
14117;BME280;7137;51.436;6.544;2023-05-19T13:18:42;101902.38;;;20.67;37.67
14117;BME280;7137;51.436;6.544;2023-05-19T13:21:44;101896.91;;;20.70;37.38
14117;BME280;7137;51.436;6.544;2023-05-19T13:24:46;101906.75;;;20.68;36.18
14117;BME280;7137;51.436;6.544;2023-05-19T13:27:49;101900.66;;;20.50;35.89
14117;BME280;7137;51.436;6.544;2023-05-19T13:30:51;101895.13;;;20.70;35.35
14117;BME280;7137;51.436;6.544;2023-05-19T13:33:52;101898.00;;;20.50;37.24
14117;BME280;7137;51.436;6.544;2023-05-19T13:36:54;101899.13;;;20.62;35.06
14117;BME280;7137;51.436;6.544;2023-05-19T13:39:55;101894.50;;;20.65;35.58
14117;BME280;7137;51.436;6.544;2023-05-19T13:42:59;101882.44;;;20.91;36.02
14117;BME280;7137;51.436;6.544;2023-05-19T13:46:01;101868.97;;;20.47;35.54
14117;BME280;7137;51.436;6.544;2023-05-19T13:49:02;101872.84;;;20.40;36.04
14117;BME280;7137;51.436;6.544;2023-05-19T13:52:04;101864.75;;;20.26;36.27
14117;BME280;7137;51.436;6.544;2023-05-19T13:55:07;101865.06;;;20.70;35.44
14117;BME280;7137;51.436;6.544;2023-05-19T13:58:10;101863.56;;;20.96;35.73
14117;BME280;7137;51.436;6.544;2023-05-19T14:01:13;101863.94;;;20.90;36.17
14117;BME280;7137;51.436;6.544;2023-05-19T14:04:16;101853.97;;;20.62;35.78
14117;BME280;7137;51.436;6.544;2023-05-19T14:07:18;101862.53;;;20.67;36.14
14117;BME280;7137;51.436;6.544;2023-05-19T14:10:20;101865.19;;;20.67;35.77
14117;BME280;7137;51.436;6.544;2023-05-19T14:13:23;101857.00;;;20.56;36.51
14117;BME280;7137;51.436;6.544;2023-05-19T14:16:26;101854.56;;;20.83;36.69
14117;BME280;7137;51.436;6.544;2023-05-19T14:19:27;101858.19;;;20.82;35.69
14117;BME280;7137;51.436;6.544;2023-05-19T14:22:29;101868.13;;;20.94;35.95
14117;BME280;7137;51.436;6.544;2023-05-19T14:25:31;101857.66;;;21.07;36.18
14117;BME280;7137;51.436;6.544;2023-05-19T14:28:34;101855.06;;;21.21;35.16
14117;BME280;7137;51.436;6.544;2023-05-19T14:31:35;101864.59;;;20.78;36.51
14117;BME280;7137;51.436;6.544;2023-05-19T14:34:37;101862.13;;;20.90;35.60
14117;BME280;7137;51.436;6.544;2023-05-19T14:37:38;101861.00;;;20.79;35.80
14117;BME280;7137;51.436;6.544;2023-05-19T14:40:40;101861.94;;;20.62;35.98
14117;BME280;7137;51.436;6.544;2023-05-19T14:43:43;101858.53;;;20.75;35.65
14117;BME280;7137;51.436;6.544;2023-05-19T14:46:45;101851.59;;;20.89;36.09
14117;BME280;7137;51.436;6.544;2023-05-19T14:49:46;101854.91;;;20.92;35.10
14117;BME280;7137;51.436;6.544;2023-05-19T14:52:48;101837.94;;;21.26;35.16
14117;BME280;7137;51.436;6.544;2023-05-19T14:55:49;101852.16;;;21.10;35.61
14117;BME280;7137;51.436;6.544;2023-05-19T14:58:52;101845.66;;;21.15;34.66
14117;BME280;7137;51.436;6.544;2023-05-19T15:01:54;101853.75;;;20.98;35.19
14117;BME280;7137;51.436;6.544;2023-05-19T15:04:55;101850.38;;;20.94;34.60
14117;BME280;7137;51.436;6.544;2023-05-19T15:07:58;101849.34;;;20.65;34.89
14117;BME280;7137;51.436;6.544;2023-05-19T15:10:59;101846.03;;;20.62;34.92
14117;BME280;7137;51.436;6.544;2023-05-19T15:14:02;101846.69;;;20.97;35.94
14117;BME280;7137;51.436;6.544;2023-05-19T15:17:04;101830.22;;;21.06;35.76
14117;BME280;7137;51.436;6.544;2023-05-19T15:20:06;101832.69;;;21.09;35.27
14117;BME280;7137;51.436;6.544;2023-05-19T15:23:08;101832.81;;;20.76;35.26
14117;BME280;7137;51.436;6.544;2023-05-19T15:26:10;101834.34;;;20.96;35.65
14117;BME280;7137;51.436;6.544;2023-05-19T15:29:13;101833.25;;;21.00;35.52
14117;BME280;7137;51.436;6.544;2023-05-19T15:32:14;101836.88;;;20.83;35.40
14117;BME280;7137;51.436;6.544;2023-05-19T15:35:16;101829.81;;;20.82;34.30
14117;BME280;7137;51.436;6.544;2023-05-19T15:38:18;101822.34;;;21.04;35.41
14117;BME280;7137;51.436;6.544;2023-05-19T15:41:20;101837.38;;;20.90;35.05
14117;BME280;7137;51.436;6.544;2023-05-19T15:44:23;101822.38;;;20.73;34.92
14117;BME280;7137;51.436;6.544;2023-05-19T15:47:25;101823.59;;;20.83;35.42
14117;BME280;7137;51.436;6.544;2023-05-19T15:50:26;101814.91;;;20.80;33.88
14117;BME280;7137;51.436;6.544;2023-05-19T15:53:28;101819.72;;;20.89;34.73
14117;BME280;7137;51.436;6.544;2023-05-19T15:56:29;101817.09;;;21.19;35.13
14117;BME280;7137;51.436;6.544;2023-05-19T15:59:32;101817.59;;;21.25;35.34
14117;BME280;7137;51.436;6.544;2023-05-19T16:02:34;101817.78;;;21.07;35.47
14117;BME280;7137;51.436;6.544;2023-05-19T16:05:35;101818.84;;;20.88;35.91
14117;BME280;7137;51.436;6.544;2023-05-19T16:08:37;101817.72;;;20.92;35.01
14117;BME280;7137;51.436;6.544;2023-05-19T16:11:39;101816.97;;;20.90;35.37